sensor_id;sensor_type;location;lat;lon;timestamp;temperature;humidity
17715;DHT22;8977;50.902;4.314;2022-08-21T00:02:26;22.50;97.20
17715;DHT22;8977;50.902;4.314;2022-08-21T00:04:55;22.50;97.60
17715;DHT22;8977;50.902;4.314;2022-08-21T00:07:22;22.60;97.30
17715;DHT22;8977;50.902;4.314;2022-08-21T00:09:50;22.50;97.20
17715;DHT22;8977;50.902;4.314;2022-08-21T00:12:17;22.50;97.20
17715;DHT22;8977;50.902;4.314;2022-08-21T00:14:44;22.50;97.30
17715;DHT22;8977;50.902;4.314;2022-08-21T00:17:11;22.50;97.30
17715;DHT22;8977;50.902;4.314;2022-08-21T00:19:37;22.40;97.40
17715;DHT22;8977;50.902;4.314;2022-08-21T00:22:04;22.40;97.50
17715;DHT22;8977;50.902;4.314;2022-08-21T00:24:31;22.40;97.50
17715;DHT22;8977;50.902;4.314;2022-08-21T00:27:00;22.30;97.60
17715;DHT22;8977;50.902;4.314;2022-08-21T00:29:27;22.40;97.60
17715;DHT22;8977;50.902;4.314;2022-08-21T00:31:54;22.30;97.70
17715;DHT22;8977;50.902;4.314;2022-08-21T00:34:21;22.40;97.60
17715;DHT22;8977;50.902;4.314;2022-08-21T00:36:48;22.40;97.60
17715;DHT22;8977;50.902;4.314;2022-08-21T00:39:15;22.40;97.60
17715;DHT22;8977;50.902;4.314;2022-08-21T00:41:42;22.30;97.70
17715;DHT22;8977;50.902;4.314;2022-08-21T00:44:14;22.30;97.70
17715;DHT22;8977;50.902;4.314;2022-08-21T00:46:43;22.30;97.80
17715;DHT22;8977;50.902;4.314;2022-08-21T00:49:11;22.30;97.80
17715;DHT22;8977;50.902;4.314;2022-08-21T00:51:42;22.30;97.70
17715;DHT22;8977;50.902;4.314;2022-08-21T00:54:11;22.30;97.70
17715;DHT22;8977;50.902;4.314;2022-08-21T00:56:39;22.30;97.70
17715;DHT22;8977;50.902;4.314;2022-08-21T00:59:07;22.30;97.80
17715;DHT22;8977;50.902;4.314;2022-08-21T01:01:36;22.30;97.70
17715;DHT22;8977;50.902;4.314;2022-08-21T01:04:03;22.20;97.80
17715;DHT22;8977;50.902;4.314;2022-08-21T01:06:30;22.20;97.80
17715;DHT22;8977;50.902;4.314;2022-08-21T01:08:57;22.10;98.20
17715;DHT22;8977;50.902;4.314;2022-08-21T01:11:24;22.10;97.90
17715;DHT22;8977;50.902;4.314;2022-08-21T01:13:52;22.20;97.90
17715;DHT22;8977;50.902;4.314;2022-08-21T01:16:21;22.00;98.00
17715;DHT22;8977;50.902;4.314;2022-08-21T01:18:51;22.00;98.00
17715;DHT22;8977;50.902;4.314;2022-08-21T01:21:21;22.00;98.10
17715;DHT22;8977;50.902;4.314;2022-08-21T01:23:50;22.00;98.10
17715;DHT22;8977;50.902;4.314;2022-08-21T01:26:21;22.00;98.10
17715;DHT22;8977;50.902;4.314;2022-08-21T01:28:51;22.00;98.20
17715;DHT22;8977;50.902;4.314;2022-08-21T01:31:23;21.90;98.20
17715;DHT22;8977;50.902;4.314;2022-08-21T01:33:51;21.90;98.20
17715;DHT22;8977;50.902;4.314;2022-08-21T01:36:19;21.90;98.30
17715;DHT22;8977;50.902;4.314;2022-08-21T01:38:46;21.90;98.30
17715;DHT22;8977;50.902;4.314;2022-08-21T01:41:13;21.80;98.30
17715;DHT22;8977;50.902;4.314;2022-08-21T01:43:40;21.70;98.30
17715;DHT22;8977;50.902;4.314;2022-08-21T01:46:08;21.80;98.40
17715;DHT22;8977;50.902;4.314;2022-08-21T01:48:36;21.80;98.40
17715;DHT22;8977;50.902;4.314;2022-08-21T01:51:03;21.70;98.40
17715;DHT22;8977;50.902;4.314;2022-08-21T01:53:32;21.70;98.50
17715;DHT22;8977;50.902;4.314;2022-08-21T01:56:02;21.70;98.50
17715;DHT22;8977;50.902;4.314;2022-08-21T01:58:29;21.70;98.50
17715;DHT22;8977;50.902;4.314;2022-08-21T02:00:56;21.80;98.50
17715;DHT22;8977;50.902;4.314;2022-08-21T02:03:23;21.80;98.40
17715;DHT22;8977;50.902;4.314;2022-08-21T02:05:50;21.80;98.50
17715;DHT22;8977;50.902;4.314;2022-08-21T02:08:16;21.80;98.40
17715;DHT22;8977;50.902;4.314;2022-08-21T02:10:45;21.70;98.60
17715;DHT22;8977;50.902;4.314;2022-08-21T02:13:12;21.70;98.60
17715;DHT22;8977;50.902;4.314;2022-08-21T02:15:39;21.70;98.60
17715;DHT22;8977;50.902;4.314;2022-08-21T02:18:06;21.70;98.70
17715;DHT22;8977;50.902;4.314;2022-08-21T02:20:36;21.70;98.70
17715;DHT22;8977;50.902;4.314;2022-08-21T02:23:04;21.70;98.80
17715;DHT22;8977;50.902;4.314;2022-08-21T02:25:31;21.80;98.70
17715;DHT22;8977;50.902;4.314;2022-08-21T02:28:03;21.70;99.20
17715;DHT22;8977;50.902;4.314;2022-08-21T02:30:34;21.80;98.80
17715;DHT22;8977;50.902;4.314;2022-08-21T02:33:03;21.80;98.80
17715;DHT22;8977;50.902;4.314;2022-08-21T02:35:31;21.70;98.80
17715;DHT22;8977;50.902;4.314;2022-08-21T02:37:59;21.70;98.90
17715;DHT22;8977;50.902;4.314;2022-08-21T02:40:28;21.70;98.90
17715;DHT22;8977;50.902;4.314;2022-08-21T02:42:56;21.70;98.90
17715;DHT22;8977;50.902;4.314;2022-08-21T02:45:25;21.70;98.90
17715;DHT22;8977;50.902;4.314;2022-08-21T02:47:55;21.70;99.00
17715;DHT22;8977;50.902;4.314;2022-08-21T02:50:24;21.70;98.90
17715;DHT22;8977;50.902;4.314;2022-08-21T02:52:51;21.70;98.80
17715;DHT22;8977;50.902;4.314;2022-08-21T02:55:19;21.70;98.90
17715;DHT22;8977;50.902;4.314;2022-08-21T02:57:47;21.70;98.90
17715;DHT22;8977;50.902;4.314;2022-08-21T03:00:15;21.70;98.90
17715;DHT22;8977;50.902;4.314;2022-08-21T03:02:43;21.70;98.90
17715;DHT22;8977;50.902;4.314;2022-08-21T03:05:12;21.70;98.80
17715;DHT22;8977;50.902;4.314;2022-08-21T03:07:40;21.70;98.80
17715;DHT22;8977;50.902;4.314;2022-08-21T03:10:08;21.70;98.90
17715;DHT22;8977;50.902;4.314;2022-08-21T03:12:35;21.70;98.90
17715;DHT22;8977;50.902;4.314;2022-08-21T03:15:03;21.70;98.90
17715;DHT22;8977;50.902;4.314;2022-08-21T03:17:30;21.60;98.80
17715;DHT22;8977;50.902;4.314;2022-08-21T03:19:59;21.60;98.90
17715;DHT22;8977;50.902;4.314;2022-08-21T03:22:26;21.60;98.90
17715;DHT22;8977;50.902;4.314;2022-08-21T03:24:53;21.60;98.90
17715;DHT22;8977;50.902;4.314;2022-08-21T03:27:20;21.60;98.90
17715;DHT22;8977;50.902;4.314;2022-08-21T03:29:47;21.60;98.90
17715;DHT22;8977;50.902;4.314;2022-08-21T03:32:14;21.60;98.90
17715;DHT22;8977;50.902;4.314;2022-08-21T03:34:41;21.50;98.90
17715;DHT22;8977;50.902;4.314;2022-08-21T03:37:09;21.50;98.90
17715;DHT22;8977;50.902;4.314;2022-08-21T03:39:36;21.50;98.90
17715;DHT22;8977;50.902;4.314;2022-08-21T03:42:03;21.50;98.90
17715;DHT22;8977;50.902;4.314;2022-08-21T03:44:31;21.50;98.90
17715;DHT22;8977;50.902;4.314;2022-08-21T03:46:58;21.50;98.90
17715;DHT22;8977;50.902;4.314;2022-08-21T03:49:26;21.50;98.90
17715;DHT22;8977;50.902;4.314;2022-08-21T03:51:53;21.50;98.80
17715;DHT22;8977;50.902;4.314;2022-08-21T03:54:21;21.40;98.90
17715;DHT22;8977;50.902;4.314;2022-08-21T03:56:48;21.50;99.30
17715;DHT22;8977;50.902;4.314;2022-08-21T03:59:15;21.40;98.90
17715;DHT22;8977;50.902;4.314;2022-08-21T04:01:51;21.40;98.80
17715;DHT22;8977;50.902;4.314;2022-08-21T04:04:18;21.40;98.90
17715;DHT22;8977;50.902;4.314;2022-08-21T04:06:45;21.50;98.90
17715;DHT22;8977;50.902;4.314;2022-08-21T04:09:12;21.40;98.90
17715;DHT22;8977;50.902;4.314;2022-08-21T04:11:41;21.40;98.90
17715;DHT22;8977;50.902;4.314;2022-08-21T04:14:08;21.40;99.10
17715;DHT22;8977;50.902;4.314;2022-08-21T04:16:35;21.40;99.00
17715;DHT22;8977;50.902;4.314;2022-08-21T04:19:02;21.40;98.90
17715;DHT22;8977;50.902;4.314;2022-08-21T04:21:30;21.30;98.90
17715;DHT22;8977;50.902;4.314;2022-08-21T04:23:57;21.30;99.00
17715;DHT22;8977;50.902;4.314;2022-08-21T04:26:25;21.20;99.20
17715;DHT22;8977;50.902;4.314;2022-08-21T04:28:53;21.30;99.10
17715;DHT22;8977;50.902;4.314;2022-08-21T04:31:21;21.30;99.10
17715;DHT22;8977;50.902;4.314;2022-08-21T04:33:48;21.20;99.10
17715;DHT22;8977;50.902;4.314;2022-08-21T04:36:16;21.20;99.00
17715;DHT22;8977;50.902;4.314;2022-08-21T04:38:42;21.30;99.00
17715;DHT22;8977;50.902;4.314;2022-08-21T04:41:09;21.30;99.00
17715;DHT22;8977;50.902;4.314;2022-08-21T04:43:38;21.30;99.00
17715;DHT22;8977;50.902;4.314;2022-08-21T04:46:06;21.30;99.10
17715;DHT22;8977;50.902;4.314;2022-08-21T04:48:33;21.20;99.20
17715;DHT22;8977;50.902;4.314;2022-08-21T04:51:04;21.20;99.20
17715;DHT22;8977;50.902;4.314;2022-08-21T04:53:36;21.20;99.20
17715;DHT22;8977;50.902;4.314;2022-08-21T04:56:07;21.20;99.20
17715;DHT22;8977;50.902;4.314;2022-08-21T04:58:35;21.20;99.20
17715;DHT22;8977;50.902;4.314;2022-08-21T05:01:04;21.20;99.20
17715;DHT22;8977;50.902;4.314;2022-08-21T05:03:34;21.10;99.30
17715;DHT22;8977;50.902;4.314;2022-08-21T05:06:04;21.20;99.40
17715;DHT22;8977;50.902;4.314;2022-08-21T05:08:33;21.10;99.30
17715;DHT22;8977;50.902;4.314;2022-08-21T05:11:00;21.10;99.30
17715;DHT22;8977;50.902;4.314;2022-08-21T05:13:29;21.20;99.30
17715;DHT22;8977;50.902;4.314;2022-08-21T05:15:56;21.10;99.30
17715;DHT22;8977;50.902;4.314;2022-08-21T05:18:24;21.10;99.30
17715;DHT22;8977;50.902;4.314;2022-08-21T05:20:52;21.00;99.40
17715;DHT22;8977;50.902;4.314;2022-08-21T05:23:19;21.00;99.40
17715;DHT22;8977;50.902;4.314;2022-08-21T05:25:46;21.00;99.50
17715;DHT22;8977;50.902;4.314;2022-08-21T05:28:13;21.00;99.40
17715;DHT22;8977;50.902;4.314;2022-08-21T05:30:40;20.90;99.50
17715;DHT22;8977;50.902;4.314;2022-08-21T05:33:07;20.90;99.50
17715;DHT22;8977;50.902;4.314;2022-08-21T05:35:34;21.00;99.40
17715;DHT22;8977;50.902;4.314;2022-08-21T05:38:03;20.90;99.60
17715;DHT22;8977;50.902;4.314;2022-08-21T05:40:30;21.00;99.70
17715;DHT22;8977;50.902;4.314;2022-08-21T05:42:57;21.00;99.60
17715;DHT22;8977;50.902;4.314;2022-08-21T05:45:26;21.00;99.70
17715;DHT22;8977;50.902;4.314;2022-08-21T05:47:53;21.00;99.70
17715;DHT22;8977;50.902;4.314;2022-08-21T05:50:20;21.10;99.60
17715;DHT22;8977;50.902;4.314;2022-08-21T05:52:47;21.00;99.70
17715;DHT22;8977;50.902;4.314;2022-08-21T05:55:15;21.00;99.70
17715;DHT22;8977;50.902;4.314;2022-08-21T05:57:42;21.10;99.70
17715;DHT22;8977;50.902;4.314;2022-08-21T06:00:10;21.10;99.60
17715;DHT22;8977;50.902;4.314;2022-08-21T06:02:38;21.10;99.70
17715;DHT22;8977;50.902;4.314;2022-08-21T06:05:05;21.10;99.80
17715;DHT22;8977;50.902;4.314;2022-08-21T06:07:32;21.00;99.90
17715;DHT22;8977;50.902;4.314;2022-08-21T06:09:59;21.10;99.90
17715;DHT22;8977;50.902;4.314;2022-08-21T06:12:28;21.10;99.90
17715;DHT22;8977;50.902;4.314;2022-08-21T06:14:55;21.10;99.90
17715;DHT22;8977;50.902;4.314;2022-08-21T06:17:21;21.10;99.90
17715;DHT22;8977;50.902;4.314;2022-08-21T06:19:51;21.20;99.90
17715;DHT22;8977;50.902;4.314;2022-08-21T06:22:18;21.10;99.90
17715;DHT22;8977;50.902;4.314;2022-08-21T06:24:44;21.20;99.90
17715;DHT22;8977;50.902;4.314;2022-08-21T06:27:12;21.20;99.90
17715;DHT22;8977;50.902;4.314;2022-08-21T06:29:40;21.20;99.90
17715;DHT22;8977;50.902;4.314;2022-08-21T06:32:10;21.30;99.90
17715;DHT22;8977;50.902;4.314;2022-08-21T06:34:38;21.40;99.90
17715;DHT22;8977;50.902;4.314;2022-08-21T06:37:06;21.40;99.90
17715;DHT22;8977;50.902;4.314;2022-08-21T06:39:35;21.30;99.90
17715;DHT22;8977;50.902;4.314;2022-08-21T06:42:02;21.20;99.90
17715;DHT22;8977;50.902;4.314;2022-08-21T06:44:30;21.30;99.90
17715;DHT22;8977;50.902;4.314;2022-08-21T06:46:58;21.20;99.90
17715;DHT22;8977;50.902;4.314;2022-08-21T06:49:25;21.20;99.90
17715;DHT22;8977;50.902;4.314;2022-08-21T06:51:52;21.30;99.90
17715;DHT22;8977;50.902;4.314;2022-08-21T06:54:19;21.30;99.90
17715;DHT22;8977;50.902;4.314;2022-08-21T06:56:46;21.20;99.90
17715;DHT22;8977;50.902;4.314;2022-08-21T06:59:13;21.40;99.90
17715;DHT22;8977;50.902;4.314;2022-08-21T07:01:40;21.40;99.90
17715;DHT22;8977;50.902;4.314;2022-08-21T07:04:08;21.40;99.90
17715;DHT22;8977;50.902;4.314;2022-08-21T07:06:35;21.40;99.90
17715;DHT22;8977;50.902;4.314;2022-08-21T07:09:02;21.50;99.90
17715;DHT22;8977;50.902;4.314;2022-08-21T07:11:29;21.50;99.90
17715;DHT22;8977;50.902;4.314;2022-08-21T07:13:57;21.50;99.90
17715;DHT22;8977;50.902;4.314;2022-08-21T07:16:24;21.50;99.90
17715;DHT22;8977;50.902;4.314;2022-08-21T07:18:51;21.50;99.90
17715;DHT22;8977;50.902;4.314;2022-08-21T07:21:20;21.50;99.90
17715;DHT22;8977;50.902;4.314;2022-08-21T07:23:50;21.60;99.90
17715;DHT22;8977;50.902;4.314;2022-08-21T07:26:19;21.70;99.90
17715;DHT22;8977;50.902;4.314;2022-08-21T07:28:47;21.60;99.90
17715;DHT22;8977;50.902;4.314;2022-08-21T07:31:16;21.60;99.90
17715;DHT22;8977;50.902;4.314;2022-08-21T07:33:43;21.80;99.90
17715;DHT22;8977;50.902;4.314;2022-08-21T07:36:11;21.70;99.90
17715;DHT22;8977;50.902;4.314;2022-08-21T07:38:39;21.80;99.90
17715;DHT22;8977;50.902;4.314;2022-08-21T07:41:12;21.90;99.90
17715;DHT22;8977;50.902;4.314;2022-08-21T07:43:39;21.80;99.90
17715;DHT22;8977;50.902;4.314;2022-08-21T07:46:06;21.90;99.90
17715;DHT22;8977;50.902;4.314;2022-08-21T07:48:33;21.90;99.90
17715;DHT22;8977;50.902;4.314;2022-08-21T07:51:04;22.00;99.90
17715;DHT22;8977;50.902;4.314;2022-08-21T07:53:32;22.10;99.90
17715;DHT22;8977;50.902;4.314;2022-08-21T07:56:00;22.00;99.90
17715;DHT22;8977;50.902;4.314;2022-08-21T07:58:27;22.10;99.90
17715;DHT22;8977;50.902;4.314;2022-08-21T08:00:54;22.10;99.90
17715;DHT22;8977;50.902;4.314;2022-08-21T08:03:21;22.10;99.90
17715;DHT22;8977;50.902;4.314;2022-08-21T08:05:48;22.10;99.90
17715;DHT22;8977;50.902;4.314;2022-08-21T08:08:15;22.10;99.90
17715;DHT22;8977;50.902;4.314;2022-08-21T08:10:43;22.10;99.90
17715;DHT22;8977;50.902;4.314;2022-08-21T08:13:11;22.20;99.90
17715;DHT22;8977;50.902;4.314;2022-08-21T08:15:38;22.20;99.90
17715;DHT22;8977;50.902;4.314;2022-08-21T08:18:05;22.20;99.90
17715;DHT22;8977;50.902;4.314;2022-08-21T08:20:32;22.30;99.90
17715;DHT22;8977;50.902;4.314;2022-08-21T08:22:59;22.30;99.90
17715;DHT22;8977;50.902;4.314;2022-08-21T08:25:26;22.40;99.90
17715;DHT22;8977;50.902;4.314;2022-08-21T08:27:53;22.50;99.90
17715;DHT22;8977;50.902;4.314;2022-08-21T08:30:22;22.40;99.90
17715;DHT22;8977;50.902;4.314;2022-08-21T08:32:49;22.50;99.90
17715;DHT22;8977;50.902;4.314;2022-08-21T08:35:17;22.40;99.90
17715;DHT22;8977;50.902;4.314;2022-08-21T08:37:44;22.40;99.90
17715;DHT22;8977;50.902;4.314;2022-08-21T08:40:13;22.40;99.90
17715;DHT22;8977;50.902;4.314;2022-08-21T08:42:41;22.40;99.90
17715;DHT22;8977;50.902;4.314;2022-08-21T08:45:10;22.40;99.90
17715;DHT22;8977;50.902;4.314;2022-08-21T08:47:42;22.50;99.90
17715;DHT22;8977;50.902;4.314;2022-08-21T08:50:13;22.70;99.90
17715;DHT22;8977;50.902;4.314;2022-08-21T08:52:47;22.60;99.90
17715;DHT22;8977;50.902;4.314;2022-08-21T08:55:18;22.60;99.90
17715;DHT22;8977;50.902;4.314;2022-08-21T08:57:47;22.70;99.90
17715;DHT22;8977;50.902;4.314;2022-08-21T09:00:17;22.80;99.90
17715;DHT22;8977;50.902;4.314;2022-08-21T09:02:46;22.80;99.90
17715;DHT22;8977;50.902;4.314;2022-08-21T09:05:24;22.90;99.90
17715;DHT22;8977;50.902;4.314;2022-08-21T09:08:10;22.90;99.80
17715;DHT22;8977;50.902;4.314;2022-08-21T09:10:48;23.00;99.70
17715;DHT22;8977;50.902;4.314;2022-08-21T09:13:24;22.90;99.90
17715;DHT22;8977;50.902;4.314;2022-08-21T09:15:57;23.00;99.90
17715;DHT22;8977;50.902;4.314;2022-08-21T09:18:38;23.00;99.70
17715;DHT22;8977;50.902;4.314;2022-08-21T09:21:18;23.00;99.80
17715;DHT22;8977;50.902;4.314;2022-08-21T09:23:54;23.10;99.80
17715;DHT22;8977;50.902;4.314;2022-08-21T09:26:24;23.30;99.60
17715;DHT22;8977;50.902;4.314;2022-08-21T09:28:54;23.20;99.70
17715;DHT22;8977;50.902;4.314;2022-08-21T09:31:24;23.30;99.50
17715;DHT22;8977;50.902;4.314;2022-08-21T09:33:59;23.40;99.20
17715;DHT22;8977;50.902;4.314;2022-08-21T09:36:33;23.50;99.00
17715;DHT22;8977;50.902;4.314;2022-08-21T09:39:01;23.50;98.90
17715;DHT22;8977;50.902;4.314;2022-08-21T09:41:30;23.50;98.80
17715;DHT22;8977;50.902;4.314;2022-08-21T09:43:57;23.60;98.30
17715;DHT22;8977;50.902;4.314;2022-08-21T09:46:26;23.60;98.50
17715;DHT22;8977;50.902;4.314;2022-08-21T09:48:57;23.60;98.10
17715;DHT22;8977;50.902;4.314;2022-08-21T09:51:28;23.60;98.40
17715;DHT22;8977;50.902;4.314;2022-08-21T09:54:07;23.60;98.20
17715;DHT22;8977;50.902;4.314;2022-08-21T09:56:38;23.50;98.40
17715;DHT22;8977;50.902;4.314;2022-08-21T09:59:27;23.40;98.60
17715;DHT22;8977;50.902;4.314;2022-08-21T10:01:57;23.40;98.80
17715;DHT22;8977;50.902;4.314;2022-08-21T10:04:29;23.40;98.80
17715;DHT22;8977;50.902;4.314;2022-08-21T10:07:08;23.40;99.00
17715;DHT22;8977;50.902;4.314;2022-08-21T10:09:35;23.50;99.00
17715;DHT22;8977;50.902;4.314;2022-08-21T10:12:10;23.50;99.20
17715;DHT22;8977;50.902;4.314;2022-08-21T10:14:47;23.60;99.10
17715;DHT22;8977;50.902;4.314;2022-08-21T10:17:23;23.60;99.30
17715;DHT22;8977;50.902;4.314;2022-08-21T10:20:02;23.60;99.30
17715;DHT22;8977;50.902;4.314;2022-08-21T10:22:38;23.70;99.10
17715;DHT22;8977;50.902;4.314;2022-08-21T10:25:14;23.80;98.70
17715;DHT22;8977;50.902;4.314;2022-08-21T10:27:50;23.80;98.60
17715;DHT22;8977;50.902;4.314;2022-08-21T10:30:24;23.80;98.50
17715;DHT22;8977;50.902;4.314;2022-08-21T10:33:03;23.80;98.50
17715;DHT22;8977;50.902;4.314;2022-08-21T10:35:39;23.80;98.70
17715;DHT22;8977;50.902;4.314;2022-08-21T10:38:33;23.70;99.20
17715;DHT22;8977;50.902;4.314;2022-08-21T10:41:12;23.70;98.90
17715;DHT22;8977;50.902;4.314;2022-08-21T10:43:50;23.80;99.00
17715;DHT22;8977;50.902;4.314;2022-08-21T10:46:26;23.90;98.90
17715;DHT22;8977;50.902;4.314;2022-08-21T10:48:58;23.90;98.50
17715;DHT22;8977;50.902;4.314;2022-08-21T10:51:32;23.90;98.60
17715;DHT22;8977;50.902;4.314;2022-08-21T10:54:09;24.00;98.80
17715;DHT22;8977;50.902;4.314;2022-08-21T10:56:41;24.10;98.10
17715;DHT22;8977;50.902;4.314;2022-08-21T10:59:21;24.20;98.20
17715;DHT22;8977;50.902;4.314;2022-08-21T11:01:54;24.20;97.90
17715;DHT22;8977;50.902;4.314;2022-08-21T11:04:28;24.20;98.00
17715;DHT22;8977;50.902;4.314;2022-08-21T11:07:02;24.20;98.10
17715;DHT22;8977;50.902;4.314;2022-08-21T11:09:31;24.20;98.20
17715;DHT22;8977;50.902;4.314;2022-08-21T11:12:03;24.20;98.30
17715;DHT22;8977;50.902;4.314;2022-08-21T11:14:39;24.20;98.50
17715;DHT22;8977;50.902;4.314;2022-08-21T11:17:10;24.30;98.20
17715;DHT22;8977;50.902;4.314;2022-08-21T11:19:43;24.40;97.80
17715;DHT22;8977;50.902;4.314;2022-08-21T11:22:16;24.40;97.60
17715;DHT22;8977;50.902;4.314;2022-08-21T11:24:50;24.40;97.80
17715;DHT22;8977;50.902;4.314;2022-08-21T11:27:22;24.30;98.10
17715;DHT22;8977;50.902;4.314;2022-08-21T11:29:52;24.30;98.10
17715;DHT22;8977;50.902;4.314;2022-08-21T11:33:03;24.30;98.30
17715;DHT22;8977;50.902;4.314;2022-08-21T11:35:37;24.40;98.20
17715;DHT22;8977;50.902;4.314;2022-08-21T11:38:22;24.40;98.30
17715;DHT22;8977;50.902;4.314;2022-08-21T11:41:05;24.40;98.20
17715;DHT22;8977;50.902;4.314;2022-08-21T11:43:38;24.50;97.80
17715;DHT22;8977;50.902;4.314;2022-08-21T11:46:25;24.40;97.80
17715;DHT22;8977;50.902;4.314;2022-08-21T11:49:11;24.40;97.80
17715;DHT22;8977;50.902;4.314;2022-08-21T11:51:45;24.40;97.60
17715;DHT22;8977;50.902;4.314;2022-08-21T11:54:20;24.30;97.60
17715;DHT22;8977;50.902;4.314;2022-08-21T11:56:55;24.30;97.80
17715;DHT22;8977;50.902;4.314;2022-08-21T11:59:32;24.30;97.60
17715;DHT22;8977;50.902;4.314;2022-08-21T12:02:00;24.30;97.70
17715;DHT22;8977;50.902;4.314;2022-08-21T12:04:29;24.20;97.70
17715;DHT22;8977;50.902;4.314;2022-08-21T12:07:08;24.20;97.70
17715;DHT22;8977;50.902;4.314;2022-08-21T12:09:36;24.20;97.50
17715;DHT22;8977;50.902;4.314;2022-08-21T12:12:10;24.20;97.40
17715;DHT22;8977;50.902;4.314;2022-08-21T12:14:40;24.30;97.30
17715;DHT22;8977;50.902;4.314;2022-08-21T12:17:16;24.20;97.40
17715;DHT22;8977;50.902;4.314;2022-08-21T12:19:44;24.30;97.20
17715;DHT22;8977;50.902;4.314;2022-08-21T12:22:13;24.40;97.00
17715;DHT22;8977;50.902;4.314;2022-08-21T12:24:43;24.50;97.10
17715;DHT22;8977;50.902;4.314;2022-08-21T12:27:21;24.50;97.00
17715;DHT22;8977;50.902;4.314;2022-08-21T12:29:54;24.60;96.80
17715;DHT22;8977;50.902;4.314;2022-08-21T12:32:27;24.70;96.60
17715;DHT22;8977;50.902;4.314;2022-08-21T12:34:58;24.80;96.30
17715;DHT22;8977;50.902;4.314;2022-08-21T12:37:34;24.80;96.20
17715;DHT22;8977;50.902;4.314;2022-08-21T12:40:11;24.90;96.60
17715;DHT22;8977;50.902;4.314;2022-08-21T12:42:44;25.00;95.90
17715;DHT22;8977;50.902;4.314;2022-08-21T12:45:18;25.10;95.70
17715;DHT22;8977;50.902;4.314;2022-08-21T12:47:48;25.20;95.40
17715;DHT22;8977;50.902;4.314;2022-08-21T12:50:20;25.20;95.50
17715;DHT22;8977;50.902;4.314;2022-08-21T12:52:54;25.20;95.40
17715;DHT22;8977;50.902;4.314;2022-08-21T12:55:28;25.20;95.30
17715;DHT22;8977;50.902;4.314;2022-08-21T12:57:57;25.10;95.00
17715;DHT22;8977;50.902;4.314;2022-08-21T13:00:26;25.10;94.90
17715;DHT22;8977;50.902;4.314;2022-08-21T13:02:54;25.00;95.10
17715;DHT22;8977;50.902;4.314;2022-08-21T13:05:28;25.10;95.20
17715;DHT22;8977;50.902;4.314;2022-08-21T13:07:56;24.90;95.30
17715;DHT22;8977;50.902;4.314;2022-08-21T13:10:26;24.90;95.50
17715;DHT22;8977;50.902;4.314;2022-08-21T13:12:57;24.90;95.70
17715;DHT22;8977;50.902;4.314;2022-08-21T13:15:28;24.90;95.80
17715;DHT22;8977;50.902;4.314;2022-08-21T13:17:55;24.90;95.80
17715;DHT22;8977;50.902;4.314;2022-08-21T13:20:29;24.90;95.70
17715;DHT22;8977;50.902;4.314;2022-08-21T13:22:57;24.90;96.00
17715;DHT22;8977;50.902;4.314;2022-08-21T13:25:27;25.00;95.80
17715;DHT22;8977;50.902;4.314;2022-08-21T13:28:00;24.90;95.80
17715;DHT22;8977;50.902;4.314;2022-08-21T13:30:28;25.00;95.90
17715;DHT22;8977;50.902;4.314;2022-08-21T13:32:58;25.10;95.40
17715;DHT22;8977;50.902;4.314;2022-08-21T13:35:27;25.10;95.50
17715;DHT22;8977;50.902;4.314;2022-08-21T13:37:55;25.10;95.60
17715;DHT22;8977;50.902;4.314;2022-08-21T13:40:26;25.20;95.40
17715;DHT22;8977;50.902;4.314;2022-08-21T13:42:54;25.20;95.50
17715;DHT22;8977;50.902;4.314;2022-08-21T13:45:26;25.20;95.40
17715;DHT22;8977;50.902;4.314;2022-08-21T13:47:54;25.30;95.00
17715;DHT22;8977;50.902;4.314;2022-08-21T13:50:23;25.20;94.90
17715;DHT22;8977;50.902;4.314;2022-08-21T13:52:58;25.30;94.80
17715;DHT22;8977;50.902;4.314;2022-08-21T13:55:33;25.30;94.70
17715;DHT22;8977;50.902;4.314;2022-08-21T13:58:02;25.30;94.70
17715;DHT22;8977;50.902;4.314;2022-08-21T14:00:33;25.30;94.60
17715;DHT22;8977;50.902;4.314;2022-08-21T14:03:06;25.30;94.80
17715;DHT22;8977;50.902;4.314;2022-08-21T14:05:37;25.30;94.80
17715;DHT22;8977;50.902;4.314;2022-08-21T14:08:08;25.40;94.50
17715;DHT22;8977;50.902;4.314;2022-08-21T14:10:41;25.40;94.70
17715;DHT22;8977;50.902;4.314;2022-08-21T14:13:29;25.30;94.50
17715;DHT22;8977;50.902;4.314;2022-08-21T14:16:02;25.30;94.60
17715;DHT22;8977;50.902;4.314;2022-08-21T14:18:29;25.20;94.70
17715;DHT22;8977;50.902;4.314;2022-08-21T14:21:08;25.20;94.60
17715;DHT22;8977;50.902;4.314;2022-08-21T14:23:35;25.10;94.70
17715;DHT22;8977;50.902;4.314;2022-08-21T14:26:05;25.10;94.80
17715;DHT22;8977;50.902;4.314;2022-08-21T14:28:34;25.10;94.80
17715;DHT22;8977;50.902;4.314;2022-08-21T14:31:14;25.10;94.50
17715;DHT22;8977;50.902;4.314;2022-08-21T14:33:42;25.10;94.30
17715;DHT22;8977;50.902;4.314;2022-08-21T14:36:10;25.10;94.50
17715;DHT22;8977;50.902;4.314;2022-08-21T14:38:38;25.10;94.70
17715;DHT22;8977;50.902;4.314;2022-08-21T14:41:16;25.10;94.80
17715;DHT22;8977;50.902;4.314;2022-08-21T14:43:45;25.10;94.90
17715;DHT22;8977;50.902;4.314;2022-08-21T14:46:20;25.10;95.00
17715;DHT22;8977;50.902;4.314;2022-08-21T14:48:48;25.10;95.10
17715;DHT22;8977;50.902;4.314;2022-08-21T14:51:15;25.10;95.20
17715;DHT22;8977;50.902;4.314;2022-08-21T14:53:42;25.10;95.00
17715;DHT22;8977;50.902;4.314;2022-08-21T14:56:09;25.10;95.10
17715;DHT22;8977;50.902;4.314;2022-08-21T14:58:40;25.10;95.40
17715;DHT22;8977;50.902;4.314;2022-08-21T15:01:08;25.10;95.20
17715;DHT22;8977;50.902;4.314;2022-08-21T15:03:36;25.20;94.70
17715;DHT22;8977;50.902;4.314;2022-08-21T15:06:04;25.20;94.70
17715;DHT22;8977;50.902;4.314;2022-08-21T15:08:33;25.10;94.70
17715;DHT22;8977;50.902;4.314;2022-08-21T15:11:01;25.10;94.70
17715;DHT22;8977;50.902;4.314;2022-08-21T15:13:29;25.10;94.80
17715;DHT22;8977;50.902;4.314;2022-08-21T15:15:57;25.10;94.80
17715;DHT22;8977;50.902;4.314;2022-08-21T15:18:26;25.10;94.80
17715;DHT22;8977;50.902;4.314;2022-08-21T15:20:54;25.00;94.90
17715;DHT22;8977;50.902;4.314;2022-08-21T15:23:21;25.00;94.80
17715;DHT22;8977;50.902;4.314;2022-08-21T15:25:49;25.00;95.00
17715;DHT22;8977;50.902;4.314;2022-08-21T15:28:17;25.00;94.90
17715;DHT22;8977;50.902;4.314;2022-08-21T15:30:45;25.00;94.90
17715;DHT22;8977;50.902;4.314;2022-08-21T15:33:12;25.00;95.00
17715;DHT22;8977;50.902;4.314;2022-08-21T15:35:40;24.90;95.10
17715;DHT22;8977;50.902;4.314;2022-08-21T15:38:08;24.90;95.30
17715;DHT22;8977;50.902;4.314;2022-08-21T15:40:35;24.90;95.10
17715;DHT22;8977;50.902;4.314;2022-08-21T15:43:04;24.90;95.00
17715;DHT22;8977;50.902;4.314;2022-08-21T15:45:32;24.90;95.10
17715;DHT22;8977;50.902;4.314;2022-08-21T15:47:59;24.90;95.10
17715;DHT22;8977;50.902;4.314;2022-08-21T15:50:28;24.90;95.00
17715;DHT22;8977;50.902;4.314;2022-08-21T15:52:57;24.90;95.10
17715;DHT22;8977;50.902;4.314;2022-08-21T15:55:25;24.90;95.20
17715;DHT22;8977;50.902;4.314;2022-08-21T15:57:53;24.90;95.40
17715;DHT22;8977;50.902;4.314;2022-08-21T16:00:22;24.90;95.30
17715;DHT22;8977;50.902;4.314;2022-08-21T16:02:51;24.90;95.20